sensor_id;sensor_type;location;lat;lon;timestamp;pressure;altitude;pressure_sealevel;temperature;humidity
19128;BME280;9696;53.686;10.094;2023-05-14T00:00:20;101869.09;;;10.77;100.00
19128;BME280;9696;53.686;10.094;2023-05-14T00:02:50;101872.47;;;10.66;100.00
19128;BME280;9696;53.686;10.094;2023-05-14T00:05:19;101873.69;;;10.48;100.00
19128;BME280;9696;53.686;10.094;2023-05-14T00:07:49;101882.50;;;10.47;100.00
19128;BME280;9696;53.686;10.094;2023-05-14T00:10:18;101872.97;;;10.46;100.00
19128;BME280;9696;53.686;10.094;2023-05-14T00:12:50;101875.38;;;10.49;100.00
19128;BME280;9696;53.686;10.094;2023-05-14T00:15:19;101879.06;;;10.47;100.00
19128;BME280;9696;53.686;10.094;2023-05-14T00:17:48;101874.53;;;10.36;100.00
19128;BME280;9696;53.686;10.094;2023-05-14T00:20:18;101868.25;;;10.38;100.00
19128;BME280;9696;53.686;10.094;2023-05-14T00:22:48;101864.28;;;10.58;100.00
19128;BME280;9696;53.686;10.094;2023-05-14T00:25:17;101867.28;;;10.52;100.00
19128;BME280;9696;53.686;10.094;2023-05-14T00:27:47;101863.31;;;10.47;100.00
19128;BME280;9696;53.686;10.094;2023-05-14T00:30:16;101862.16;;;10.38;100.00
19128;BME280;9696;53.686;10.094;2023-05-14T00:32:45;101853.75;;;10.33;100.00
19128;BME280;9696;53.686;10.094;2023-05-14T00:35:14;101854.69;;;10.45;100.00
19128;BME280;9696;53.686;10.094;2023-05-14T00:37:43;101852.09;;;10.57;100.00
19128;BME280;9696;53.686;10.094;2023-05-14T00:40:14;101852.19;;;10.43;100.00
19128;BME280;9696;53.686;10.094;2023-05-14T00:42:43;101850.91;;;10.36;100.00
19128;BME280;9696;53.686;10.094;2023-05-14T00:45:12;101847.25;;;10.26;100.00
19128;BME280;9696;53.686;10.094;2023-05-14T00:47:41;101850.97;;;10.09;100.00
19128;BME280;9696;53.686;10.094;2023-05-14T00:50:11;101856.63;;;10.03;100.00
19128;BME280;9696;53.686;10.094;2023-05-14T00:52:42;101852.91;;;9.93;100.00
19128;BME280;9696;53.686;10.094;2023-05-14T00:55:15;101868.28;;;9.85;100.00
19128;BME280;9696;53.686;10.094;2023-05-14T00:57:44;101869.03;;;9.60;100.00
19128;BME280;9696;53.686;10.094;2023-05-14T01:00:14;101870.84;;;9.60;100.00
19128;BME280;9696;53.686;10.094;2023-05-14T01:02:43;101865.53;;;9.47;100.00
19128;BME280;9696;53.686;10.094;2023-05-14T01:05:12;101873.38;;;9.47;100.00
19128;BME280;9696;53.686;10.094;2023-05-14T01:07:51;101872.69;;;9.58;100.00
19128;BME280;9696;53.686;10.094;2023-05-14T01:10:31;101862.66;;;9.64;100.00
19128;BME280;9696;53.686;10.094;2023-05-14T01:13:07;101865.59;;;9.60;100.00
19128;BME280;9696;53.686;10.094;2023-05-14T01:15:39;101867.47;;;9.58;100.00
19128;BME280;9696;53.686;10.094;2023-05-14T01:18:11;101864.97;;;9.69;100.00
19128;BME280;9696;53.686;10.094;2023-05-14T01:20:41;101866.22;;;9.63;100.00
19128;BME280;9696;53.686;10.094;2023-05-14T01:23:13;101874.59;;;9.56;100.00
19128;BME280;9696;53.686;10.094;2023-05-14T01:25:42;101870.78;;;9.47;100.00
19128;BME280;9696;53.686;10.094;2023-05-14T01:28:14;101870.47;;;9.52;100.00
19128;BME280;9696;53.686;10.094;2023-05-14T01:30:51;101859.25;;;9.50;100.00
19128;BME280;9696;53.686;10.094;2023-05-14T01:33:21;101865.06;;;9.40;100.00
19128;BME280;9696;53.686;10.094;2023-05-14T01:35:53;101859.59;;;9.31;100.00
19128;BME280;9696;53.686;10.094;2023-05-14T01:38:25;101857.25;;;9.26;100.00
19128;BME280;9696;53.686;10.094;2023-05-14T01:40:57;101861.06;;;9.21;100.00
19128;BME280;9696;53.686;10.094;2023-05-14T01:43:28;101853.69;;;9.27;100.00
19128;BME280;9696;53.686;10.094;2023-05-14T01:45:58;101861.41;;;9.16;100.00
19128;BME280;9696;53.686;10.094;2023-05-14T01:48:27;101851.44;;;9.21;100.00
19128;BME280;9696;53.686;10.094;2023-05-14T01:50:57;101854.47;;;9.15;100.00
19128;BME280;9696;53.686;10.094;2023-05-14T01:53:27;101846.34;;;9.20;100.00
19128;BME280;9696;53.686;10.094;2023-05-14T01:55:57;101851.72;;;9.31;100.00
19128;BME280;9696;53.686;10.094;2023-05-14T01:58:26;101853.22;;;9.35;100.00
19128;BME280;9696;53.686;10.094;2023-05-14T02:00:55;101847.19;;;9.47;100.00
19128;BME280;9696;53.686;10.094;2023-05-14T02:03:24;101843.03;;;9.57;100.00
19128;BME280;9696;53.686;10.094;2023-05-14T02:05:53;101842.19;;;9.57;100.00
19128;BME280;9696;53.686;10.094;2023-05-14T02:08:22;101844.44;;;9.63;100.00
19128;BME280;9696;53.686;10.094;2023-05-14T02:10:53;101841.25;;;9.58;100.00
19128;BME280;9696;53.686;10.094;2023-05-14T02:13:24;101840.53;;;9.56;100.00
19128;BME280;9696;53.686;10.094;2023-05-14T02:15:53;101842.50;;;9.52;100.00
19128;BME280;9696;53.686;10.094;2023-05-14T02:18:23;101847.94;;;9.49;100.00
19128;BME280;9696;53.686;10.094;2023-05-14T02:20:52;101838.50;;;9.46;100.00
19128;BME280;9696;53.686;10.094;2023-05-14T02:23:22;101842.91;;;9.46;100.00
19128;BME280;9696;53.686;10.094;2023-05-14T02:26:06;101842.25;;;9.42;100.00
19128;BME280;9696;53.686;10.094;2023-05-14T02:28:36;101841.06;;;9.34;100.00
19128;BME280;9696;53.686;10.094;2023-05-14T02:31:05;101839.38;;;9.33;100.00
19128;BME280;9696;53.686;10.094;2023-05-14T02:33:34;101843.59;;;9.21;100.00
19128;BME280;9696;53.686;10.094;2023-05-14T02:36:04;101844.25;;;9.25;100.00
19128;BME280;9696;53.686;10.094;2023-05-14T02:38:33;101842.59;;;9.24;100.00
19128;BME280;9696;53.686;10.094;2023-05-14T02:41:02;101832.88;;;9.12;100.00
19128;BME280;9696;53.686;10.094;2023-05-14T02:43:33;101829.31;;;9.13;100.00
19128;BME280;9696;53.686;10.094;2023-05-14T02:46:02;101826.75;;;9.25;100.00
19128;BME280;9696;53.686;10.094;2023-05-14T02:48:31;101828.84;;;9.20;100.00
19128;BME280;9696;53.686;10.094;2023-05-14T02:51:00;101820.16;;;9.20;100.00
19128;BME280;9696;53.686;10.094;2023-05-14T02:53:29;101822.84;;;9.18;100.00
19128;BME280;9696;53.686;10.094;2023-05-14T02:55:59;101818.38;;;9.20;100.00
19128;BME280;9696;53.686;10.094;2023-05-14T02:58:28;101817.41;;;9.21;100.00
19128;BME280;9696;53.686;10.094;2023-05-14T03:00:58;101825.88;;;9.12;100.00
19128;BME280;9696;53.686;10.094;2023-05-14T03:03:28;101822.50;;;9.10;100.00
19128;BME280;9696;53.686;10.094;2023-05-14T03:05:58;101825.97;;;9.11;100.00
19128;BME280;9696;53.686;10.094;2023-05-14T03:08:27;101822.28;;;9.13;100.00
19128;BME280;9696;53.686;10.094;2023-05-14T03:10:56;101823.91;;;9.16;100.00
19128;BME280;9696;53.686;10.094;2023-05-14T03:13:25;101816.22;;;9.27;100.00
19128;BME280;9696;53.686;10.094;2023-05-14T03:15:55;101817.41;;;9.35;100.00
19128;BME280;9696;53.686;10.094;2023-05-14T03:18:25;101815.91;;;9.31;100.00
19128;BME280;9696;53.686;10.094;2023-05-14T03:20:57;101809.00;;;9.30;100.00
19128;BME280;9696;53.686;10.094;2023-05-14T03:23:27;101820.44;;;9.15;100.00
19128;BME280;9696;53.686;10.094;2023-05-14T03:25:58;101823.81;;;9.03;100.00
19128;BME280;9696;53.686;10.094;2023-05-14T03:28:27;101836.63;;;8.65;100.00
19128;BME280;9696;53.686;10.094;2023-05-14T03:30:56;101824.41;;;8.66;100.00
19128;BME280;9696;53.686;10.094;2023-05-14T03:33:27;101841.38;;;8.30;100.00
19128;BME280;9696;53.686;10.094;2023-05-14T03:35:56;101844.47;;;8.37;100.00
19128;BME280;9696;53.686;10.094;2023-05-14T03:38:25;101846.72;;;8.43;100.00
19128;BME280;9696;53.686;10.094;2023-05-14T03:40:56;101844.75;;;8.46;100.00
19128;BME280;9696;53.686;10.094;2023-05-14T03:43:26;101836.44;;;8.54;100.00
19128;BME280;9696;53.686;10.094;2023-05-14T03:45:55;101835.81;;;8.65;100.00
19128;BME280;9696;53.686;10.094;2023-05-14T03:48:24;101834.50;;;8.72;100.00
19128;BME280;9696;53.686;10.094;2023-05-14T03:50:55;101841.50;;;8.71;100.00
19128;BME280;9696;53.686;10.094;2023-05-14T03:53:24;101834.50;;;8.72;100.00
19128;BME280;9696;53.686;10.094;2023-05-14T03:55:53;101837.00;;;8.73;100.00
19128;BME280;9696;53.686;10.094;2023-05-14T03:58:22;101833.38;;;8.76;100.00
19128;BME280;9696;53.686;10.094;2023-05-14T04:00:51;101834.03;;;8.79;100.00
19128;BME280;9696;53.686;10.094;2023-05-14T04:03:20;101829.91;;;8.75;100.00
19128;BME280;9696;53.686;10.094;2023-05-14T04:05:50;101832.06;;;8.83;100.00
19128;BME280;9696;53.686;10.094;2023-05-14T04:08:21;101834.28;;;8.89;100.00
19128;BME280;9696;53.686;10.094;2023-05-14T04:10:50;101827.03;;;8.80;100.00
19128;BME280;9696;53.686;10.094;2023-05-14T04:13:19;101831.41;;;8.79;100.00
19128;BME280;9696;53.686;10.094;2023-05-14T04:15:48;101824.69;;;8.75;100.00
19128;BME280;9696;53.686;10.094;2023-05-14T04:18:17;101827.22;;;8.77;100.00
19128;BME280;9696;53.686;10.094;2023-05-14T04:20:47;101824.03;;;8.86;100.00
19128;BME280;9696;53.686;10.094;2023-05-14T04:23:16;101821.88;;;8.92;100.00
19128;BME280;9696;53.686;10.094;2023-05-14T04:25:46;101826.81;;;8.97;100.00
19128;BME280;9696;53.686;10.094;2023-05-14T04:28:15;101825.78;;;8.99;100.00
19128;BME280;9696;53.686;10.094;2023-05-14T04:30:44;101814.41;;;9.01;100.00
19128;BME280;9696;53.686;10.094;2023-05-14T04:33:13;101819.53;;;9.02;100.00
19128;BME280;9696;53.686;10.094;2023-05-14T04:35:43;101826.59;;;9.14;100.00
19128;BME280;9696;53.686;10.094;2023-05-14T04:38:13;101823.22;;;9.26;100.00
19128;BME280;9696;53.686;10.094;2023-05-14T04:40:42;101824.97;;;9.40;100.00
19128;BME280;9696;53.686;10.094;2023-05-14T04:43:12;101823.97;;;9.55;100.00
19128;BME280;9696;53.686;10.094;2023-05-14T04:45:41;101814.38;;;9.68;100.00
19128;BME280;9696;53.686;10.094;2023-05-14T04:48:11;101820.72;;;9.91;100.00
19128;BME280;9696;53.686;10.094;2023-05-14T04:50:40;101813.72;;;10.04;100.00
19128;BME280;9696;53.686;10.094;2023-05-14T04:53:11;101821.97;;;10.25;100.00
19128;BME280;9696;53.686;10.094;2023-05-14T04:55:40;101817.03;;;10.33;100.00
19128;BME280;9696;53.686;10.094;2023-05-14T04:58:09;101812.94;;;10.42;100.00
19128;BME280;9696;53.686;10.094;2023-05-14T05:00:39;101812.22;;;10.52;100.00
19128;BME280;9696;53.686;10.094;2023-05-14T05:03:08;101808.03;;;10.99;100.00
19128;BME280;9696;53.686;10.094;2023-05-14T05:05:38;101805.91;;;11.88;100.00
19128;BME280;9696;53.686;10.094;2023-05-14T05:08:07;101795.28;;;12.46;100.00
19128;BME280;9696;53.686;10.094;2023-05-14T05:10:38;101781.63;;;12.86;100.00
19128;BME280;9696;53.686;10.094;2023-05-14T05:13:07;101783.50;;;13.17;100.00
19128;BME280;9696;53.686;10.094;2023-05-14T05:15:36;101776.78;;;13.24;100.00
19128;BME280;9696;53.686;10.094;2023-05-14T05:18:06;101773.88;;;13.70;100.00
19128;BME280;9696;53.686;10.094;2023-05-14T05:20:36;101776.94;;;13.75;100.00
19128;BME280;9696;53.686;10.094;2023-05-14T05:23:05;101775.47;;;14.03;100.00
19128;BME280;9696;53.686;10.094;2023-05-14T05:25:34;101778.84;;;14.56;100.00
19128;BME280;9696;53.686;10.094;2023-05-14T05:28:03;101778.63;;;14.69;100.00
19128;BME280;9696;53.686;10.094;2023-05-14T05:30:32;101782.25;;;14.68;100.00
19128;BME280;9696;53.686;10.094;2023-05-14T05:33:01;101775.81;;;14.60;100.00
19128;BME280;9696;53.686;10.094;2023-05-14T05:35:32;101780.09;;;15.01;100.00
19128;BME280;9696;53.686;10.094;2023-05-14T05:38:01;101777.94;;;15.26;100.00
19128;BME280;9696;53.686;10.094;2023-05-14T05:40:31;101778.25;;;14.83;100.00
19128;BME280;9696;53.686;10.094;2023-05-14T05:43:00;101777.53;;;15.21;100.00
19128;BME280;9696;53.686;10.094;2023-05-14T05:45:29;101778.50;;;15.39;100.00
19128;BME280;9696;53.686;10.094;2023-05-14T05:47:58;101775.00;;;15.19;100.00
19128;BME280;9696;53.686;10.094;2023-05-14T05:50:27;101780.06;;;15.61;100.00
19128;BME280;9696;53.686;10.094;2023-05-14T05:52:58;101785.19;;;15.43;100.00
19128;BME280;9696;53.686;10.094;2023-05-14T05:55:28;101780.38;;;15.67;100.00
19128;BME280;9696;53.686;10.094;2023-05-14T05:57:57;101781.63;;;15.63;100.00
19128;BME280;9696;53.686;10.094;2023-05-14T06:00:26;101780.97;;;16.27;100.00
19128;BME280;9696;53.686;10.094;2023-05-14T06:02:56;101780.97;;;16.27;100.00
19128;BME280;9696;53.686;10.094;2023-05-14T06:05:25;101783.06;;;16.70;100.00
19128;BME280;9696;53.686;10.094;2023-05-14T06:07:54;101781.69;;;16.66;100.00
19128;BME280;9696;53.686;10.094;2023-05-14T06:10:25;101778.34;;;16.17;100.00
19128;BME280;9696;53.686;10.094;2023-05-14T06:12:54;101782.47;;;16.39;100.00
19128;BME280;9696;53.686;10.094;2023-05-14T06:15:23;101779.63;;;17.14;100.00
19128;BME280;9696;53.686;10.094;2023-05-14T06:17:52;101779.34;;;17.70;100.00
19128;BME280;9696;53.686;10.094;2023-05-14T06:20:21;101778.50;;;18.13;100.00
19128;BME280;9696;53.686;10.094;2023-05-14T06:22:51;101776.69;;;17.70;100.00
19128;BME280;9696;53.686;10.094;2023-05-14T06:25:20;101773.53;;;18.70;100.00
19128;BME280;9696;53.686;10.094;2023-05-14T06:27:51;101771.16;;;18.59;100.00
19128;BME280;9696;53.686;10.094;2023-05-14T06:30:20;101773.00;;;18.32;100.00
19128;BME280;9696;53.686;10.094;2023-05-14T06:32:49;101775.81;;;18.99;100.00
19128;BME280;9696;53.686;10.094;2023-05-14T06:35:19;101770.53;;;19.15;100.00
19128;BME280;9696;53.686;10.094;2023-05-14T06:37:49;101775.31;;;18.95;100.00
19128;BME280;9696;53.686;10.094;2023-05-14T06:40:18;101772.03;;;19.17;100.00
19128;BME280;9696;53.686;10.094;2023-05-14T06:42:49;101773.00;;;19.08;100.00
19128;BME280;9696;53.686;10.094;2023-05-14T06:45:19;101764.78;;;19.68;100.00
19128;BME280;9696;53.686;10.094;2023-05-14T06:47:48;101774.56;;;19.27;100.00
19128;BME280;9696;53.686;10.094;2023-05-14T06:50:17;101766.97;;;19.72;100.00
19128;BME280;9696;53.686;10.094;2023-05-14T06:52:46;101770.13;;;18.86;100.00
19128;BME280;9696;53.686;10.094;2023-05-14T06:55:15;101769.41;;;19.42;100.00
19128;BME280;9696;53.686;10.094;2023-05-14T06:57:45;101769.63;;;19.97;100.00
19128;BME280;9696;53.686;10.094;2023-05-14T07:00:16;101766.63;;;19.43;100.00
19128;BME280;9696;53.686;10.094;2023-05-14T07:02:46;101760.59;;;20.77;100.00
19128;BME280;9696;53.686;10.094;2023-05-14T07:05:15;101762.31;;;19.74;100.00
19128;BME280;9696;53.686;10.094;2023-05-14T07:07:44;101757.78;;;19.35;100.00
19128;BME280;9696;53.686;10.094;2023-05-14T07:10:13;101760.13;;;19.46;100.00
19128;BME280;9696;53.686;10.094;2023-05-14T07:12:42;101757.16;;;19.81;100.00
19128;BME280;9696;53.686;10.094;2023-05-14T07:15:12;101748.63;;;20.10;100.00
19128;BME280;9696;53.686;10.094;2023-05-14T07:17:50;101753.00;;;19.70;100.00
19128;BME280;9696;53.686;10.094;2023-05-14T07:20:20;101743.72;;;20.46;100.00
19128;BME280;9696;53.686;10.094;2023-05-14T07:22:51;101749.78;;;20.07;100.00
19128;BME280;9696;53.686;10.094;2023-05-14T07:25:21;101753.16;;;19.69;100.00
19128;BME280;9696;53.686;10.094;2023-05-14T07:27:50;101747.19;;;19.75;100.00
19128;BME280;9696;53.686;10.094;2023-05-14T07:30:19;101745.94;;;20.18;100.00
19128;BME280;9696;53.686;10.094;2023-05-14T07:32:50;101745.56;;;20.45;98.60
19128;BME280;9696;53.686;10.094;2023-05-14T07:35:21;101739.94;;;21.02;97.20
19128;BME280;9696;53.686;10.094;2023-05-14T07:37:51;101732.50;;;20.58;100.00
19128;BME280;9696;53.686;10.094;2023-05-14T07:40:22;101735.59;;;20.15;100.00
19128;BME280;9696;53.686;10.094;2023-05-14T07:42:52;101735.00;;;20.60;97.45
19128;BME280;9696;53.686;10.094;2023-05-14T07:45:22;101727.78;;;20.68;96.77
19128;BME280;9696;53.686;10.094;2023-05-14T07:47:52;101730.91;;;20.41;94.27
19128;BME280;9696;53.686;10.094;2023-05-14T07:50:22;101727.44;;;20.33;91.15
19128;BME280;9696;53.686;10.094;2023-05-14T07:52:52;101729.28;;;20.71;93.11
19128;BME280;9696;53.686;10.094;2023-05-14T07:55:21;101726.00;;;20.61;96.29
19128;BME280;9696;53.686;10.094;2023-05-14T07:57:50;101725.72;;;20.79;92.33
19128;BME280;9696;53.686;10.094;2023-05-14T08:00:19;101723.53;;;20.51;92.77
19128;BME280;9696;53.686;10.094;2023-05-14T08:02:49;101720.00;;;20.59;88.42
19128;BME280;9696;53.686;10.094;2023-05-14T08:05:20;101719.91;;;20.28;97.07
19128;BME280;9696;53.686;10.094;2023-05-14T08:07:49;101717.84;;;20.93;93.85
19128;BME280;9696;53.686;10.094;2023-05-14T08:10:18;101709.00;;;20.93;91.74
19128;BME280;9696;53.686;10.094;2023-05-14T08:12:47;101706.38;;;21.07;91.52
19128;BME280;9696;53.686;10.094;2023-05-14T08:15:16;101713.81;;;20.58;89.03
19128;BME280;9696;53.686;10.094;2023-05-14T08:17:45;101713.78;;;20.66;93.39
19128;BME280;9696;53.686;10.094;2023-05-14T08:20:15;101712.22;;;20.49;88.21
19128;BME280;9696;53.686;10.094;2023-05-14T08:22:45;101710.47;;;20.95;90.89
19128;BME280;9696;53.686;10.094;2023-05-14T08:25:14;101712.41;;;21.92;87.46
19128;BME280;9696;53.686;10.094;2023-05-14T08:27:44;101710.50;;;22.16;84.28
19128;BME280;9696;53.686;10.094;2023-05-14T08:30:13;101704.22;;;22.23;75.52
19128;BME280;9696;53.686;10.094;2023-05-14T08:32:43;101698.41;;;22.05;76.45
19128;BME280;9696;53.686;10.094;2023-05-14T08:35:12;101694.50;;;21.18;85.71
19128;BME280;9696;53.686;10.094;2023-05-14T08:37:41;101692.47;;;21.80;77.68
19128;BME280;9696;53.686;10.094;2023-05-14T08:40:12;101692.28;;;22.40;80.13
19128;BME280;9696;53.686;10.094;2023-05-14T08:42:42;101686.59;;;22.43;80.76
19128;BME280;9696;53.686;10.094;2023-05-14T08:45:17;101688.66;;;20.92;79.34
19128;BME280;9696;53.686;10.094;2023-05-14T08:47:48;101690.09;;;21.48;77.00
19128;BME280;9696;53.686;10.094;2023-05-14T08:50:18;101688.78;;;21.44;76.55
19128;BME280;9696;53.686;10.094;2023-05-14T08:52:51;101688.78;;;21.44;77.72
19128;BME280;9696;53.686;10.094;2023-05-14T08:55:22;101683.00;;;21.55;78.33
19128;BME280;9696;53.686;10.094;2023-05-14T08:57:53;101674.63;;;21.95;70.99
19128;BME280;9696;53.686;10.094;2023-05-14T09:00:22;101675.69;;;22.45;73.96
19128;BME280;9696;53.686;10.094;2023-05-14T09:02:53;101676.56;;;22.01;73.36
19128;BME280;9696;53.686;10.094;2023-05-14T09:05:23;101668.94;;;22.64;69.81
19128;BME280;9696;53.686;10.094;2023-05-14T09:07:52;101682.34;;;21.15;67.70
19128;BME280;9696;53.686;10.094;2023-05-14T09:10:23;101678.53;;;21.85;64.58
19128;BME280;9696;53.686;10.094;2023-05-14T09:12:53;101669.06;;;22.41;65.12
19128;BME280;9696;53.686;10.094;2023-05-14T09:15:23;101675.00;;;21.92;61.39
19128;BME280;9696;53.686;10.094;2023-05-14T09:17:56;101673.16;;;22.07;60.43
19128;BME280;9696;53.686;10.094;2023-05-14T09:20:25;101670.75;;;21.98;59.94
19128;BME280;9696;53.686;10.094;2023-05-14T09:22:55;101668.59;;;22.88;71.16
19128;BME280;9696;53.686;10.094;2023-05-14T09:25:30;101663.00;;;23.04;64.42
19128;BME280;9696;53.686;10.094;2023-05-14T09:28:05;101657.97;;;22.08;58.45
19128;BME280;9696;53.686;10.094;2023-05-14T09:30:34;101653.66;;;22.43;59.18
19128;BME280;9696;53.686;10.094;2023-05-14T09:33:04;101650.28;;;22.34;63.83
19128;BME280;9696;53.686;10.094;2023-05-14T09:35:37;101649.44;;;23.06;59.18
19128;BME280;9696;53.686;10.094;2023-05-14T09:38:10;101647.78;;;22.83;55.60
19128;BME280;9696;53.686;10.094;2023-05-14T09:40:41;101646.41;;;22.73;47.56
19128;BME280;9696;53.686;10.094;2023-05-14T09:43:10;101640.81;;;22.53;54.39
19128;BME280;9696;53.686;10.094;2023-05-14T09:45:40;101643.25;;;22.33;56.93
19128;BME280;9696;53.686;10.094;2023-05-14T09:48:10;101649.84;;;22.52;55.91
19128;BME280;9696;53.686;10.094;2023-05-14T09:50:41;101641.63;;;23.32;48.81
19128;BME280;9696;53.686;10.094;2023-05-14T09:53:11;101641.06;;;22.73;52.21
19128;BME280;9696;53.686;10.094;2023-05-14T09:55:41;101643.94;;;22.06;51.23
19128;BME280;9696;53.686;10.094;2023-05-14T09:58:10;101635.75;;;22.07;55.39
19128;BME280;9696;53.686;10.094;2023-05-14T10:00:44;101629.03;;;23.05;51.55
19128;BME280;9696;53.686;10.094;2023-05-14T10:03:15;101630.34;;;22.37;53.33
19128;BME280;9696;53.686;10.094;2023-05-14T10:05:48;101621.97;;;22.97;53.17
19128;BME280;9696;53.686;10.094;2023-05-14T10:08:23;101622.44;;;23.50;60.08
19128;BME280;9696;53.686;10.094;2023-05-14T10:10:55;101619.31;;;23.25;50.78
19128;BME280;9696;53.686;10.094;2023-05-14T10:13:30;101619.16;;;22.48;46.29
19128;BME280;9696;53.686;10.094;2023-05-14T10:16:05;101619.81;;;21.99;52.00
19128;BME280;9696;53.686;10.094;2023-05-14T10:18:39;101608.78;;;23.23;45.41
19128;BME280;9696;53.686;10.094;2023-05-14T10:21:14;101610.75;;;22.87;48.47
19128;BME280;9696;53.686;10.094;2023-05-14T10:23:43;101612.03;;;21.90;47.91
19128;BME280;9696;53.686;10.094;2023-05-14T10:26:15;101611.00;;;21.61;51.34
19128;BME280;9696;53.686;10.094;2023-05-14T10:28:45;101609.66;;;21.95;57.82
19128;BME280;9696;53.686;10.094;2023-05-14T10:31:14;101610.91;;;21.70;52.23
19128;BME280;9696;53.686;10.094;2023-05-14T10:33:47;101609.28;;;21.17;56.63
19128;BME280;9696;53.686;10.094;2023-05-14T10:36:17;101604.41;;;21.20;63.38
19128;BME280;9696;53.686;10.094;2023-05-14T10:38:46;101602.50;;;21.29;51.78
19128;BME280;9696;53.686;10.094;2023-05-14T10:41:24;101595.13;;;23.39;51.26
19128;BME280;9696;53.686;10.094;2023-05-14T10:43:53;101597.28;;;22.59;48.36
19128;BME280;9696;53.686;10.094;2023-05-14T10:46:25;101600.78;;;22.09;48.60
19128;BME280;9696;53.686;10.094;2023-05-14T10:48:54;101600.63;;;22.11;44.65
19128;BME280;9696;53.686;10.094;2023-05-14T10:51:24;101583.19;;;23.14;41.56
19128;BME280;9696;53.686;10.094;2023-05-14T10:53:54;101584.53;;;23.03;37.21
19128;BME280;9696;53.686;10.094;2023-05-14T10:56:25;101570.50;;;23.91;38.42
19128;BME280;9696;53.686;10.094;2023-05-14T10:58:58;101574.03;;;23.92;41.24
19128;BME280;9696;53.686;10.094;2023-05-14T11:01:28;101590.78;;;21.96;49.94
19128;BME280;9696;53.686;10.094;2023-05-14T11:03:57;101596.19;;;21.74;48.39
19128;BME280;9696;53.686;10.094;2023-05-14T11:06:27;101579.13;;;22.19;44.29
19128;BME280;9696;53.686;10.094;2023-05-14T11:09:00;101584.84;;;21.57;44.50
19128;BME280;9696;53.686;10.094;2023-05-14T11:11:32;101593.06;;;21.18;45.10
19128;BME280;9696;53.686;10.094;2023-05-14T11:14:01;101580.41;;;21.49;42.73
19128;BME280;9696;53.686;10.094;2023-05-14T11:16:30;101583.84;;;21.58;45.19
19128;BME280;9696;53.686;10.094;2023-05-14T11:19:04;101578.41;;;21.66;46.44
19128;BME280;9696;53.686;10.094;2023-05-14T11:21:33;101565.31;;;21.27;43.81
19128;BME280;9696;53.686;10.094;2023-05-14T11:24:03;101563.31;;;21.44;51.67
19128;BME280;9696;53.686;10.094;2023-05-14T11:26:35;101560.63;;;21.44;66.69
19128;BME280;9696;53.686;10.094;2023-05-14T11:29:04;101561.84;;;21.71;58.07
19128;BME280;9696;53.686;10.094;2023-05-14T11:31:35;101561.97;;;22.28;51.49
19128;BME280;9696;53.686;10.094;2023-05-14T11:34:06;101556.53;;;21.19;61.21
19128;BME280;9696;53.686;10.094;2023-05-14T11:36:36;101550.78;;;22.03;49.45
19128;BME280;9696;53.686;10.094;2023-05-14T11:39:05;101549.06;;;22.17;52.92
19128;BME280;9696;53.686;10.094;2023-05-14T11:41:42;101547.25;;;22.74;47.98
19128;BME280;9696;53.686;10.094;2023-05-14T11:44:11;101537.91;;;22.91;44.90
19128;BME280;9696;53.686;10.094;2023-05-14T11:46:40;101539.13;;;22.89;55.90
19128;BME280;9696;53.686;10.094;2023-05-14T11:49:21;101529.66;;;23.14;51.87
19128;BME280;9696;53.686;10.094;2023-05-14T11:51:56;101541.00;;;21.66;49.54
19128;BME280;9696;53.686;10.094;2023-05-14T11:54:26;101530.91;;;21.76;61.48
19128;BME280;9696;53.686;10.094;2023-05-14T11:56:58;101530.69;;;22.28;52.56
19128;BME280;9696;53.686;10.094;2023-05-14T11:59:29;101536.25;;;21.76;58.88
19128;BME280;9696;53.686;10.094;2023-05-14T12:02:00;101531.13;;;22.11;53.64
19128;BME280;9696;53.686;10.094;2023-05-14T12:04:29;101520.63;;;22.09;58.14
19128;BME280;9696;53.686;10.094;2023-05-14T12:07:03;101522.13;;;21.97;56.72
19128;BME280;9696;53.686;10.094;2023-05-14T12:09:36;101516.09;;;22.09;65.95
19128;BME280;9696;53.686;10.094;2023-05-14T12:12:11;101513.81;;;22.06;62.43
19128;BME280;9696;53.686;10.094;2023-05-14T12:14:41;101521.41;;;21.44;63.32
19128;BME280;9696;53.686;10.094;2023-05-14T12:17:13;101520.84;;;21.34;60.65
19128;BME280;9696;53.686;10.094;2023-05-14T12:19:44;101531.91;;;21.60;65.06
19128;BME280;9696;53.686;10.094;2023-05-14T12:22:15;101527.22;;;21.62;62.06
19128;BME280;9696;53.686;10.094;2023-05-14T12:24:53;101522.31;;;21.66;57.31
19128;BME280;9696;53.686;10.094;2023-05-14T12:27:29;101520.47;;;21.37;57.08
19128;BME280;9696;53.686;10.094;2023-05-14T12:29:58;101510.72;;;21.30;53.78
19128;BME280;9696;53.686;10.094;2023-05-14T12:32:47;101510.47;;;21.69;58.85
19128;BME280;9696;53.686;10.094;2023-05-14T12:35:20;101516.88;;;21.30;64.78
19128;BME280;9696;53.686;10.094;2023-05-14T12:37:50;101517.16;;;20.83;62.28
19128;BME280;9696;53.686;10.094;2023-05-14T12:40:19;101511.84;;;20.98;69.58
19128;BME280;9696;53.686;10.094;2023-05-14T12:42:50;101514.69;;;21.34;65.16
19128;BME280;9696;53.686;10.094;2023-05-14T12:45:21;101507.22;;;22.24;61.08
19128;BME280;9696;53.686;10.094;2023-05-14T12:47:50;101507.66;;;22.27;60.46
19128;BME280;9696;53.686;10.094;2023-05-14T12:50:19;101510.53;;;21.75;65.96
19128;BME280;9696;53.686;10.094;2023-05-14T12:52:49;101513.69;;;21.64;68.84
19128;BME280;9696;53.686;10.094;2023-05-14T12:55:18;101523.72;;;21.33;71.41
19128;BME280;9696;53.686;10.094;2023-05-14T12:57:49;101545.56;;;19.12;100.00
19128;BME280;9696;53.686;10.094;2023-05-14T13:00:18;101550.56;;;18.59;100.00
19128;BME280;9696;53.686;10.094;2023-05-14T13:02:47;101535.63;;;18.82;100.00